Time;durP1;ratioP1;P1;durP2;ratioP2;P2;SDS_P1;SDS_P2;PMS_P1;PMS_P2;Temp;Humidity;BMP_temperature;BMP_pressure;BME280_temperature;BME280_humidity;BME280_pressure;Samples;Min_cycle;Max_cycle;Signal;HPM_P1;HPM_P2
2023/11/07 00:00:22;;;;;;;10.80;9.10;;;10.20;99.90;;;;;;5076135;28;20865;-71
2023/11/07 00:02:53;;;;;;;11.50;9.37;;;10.20;99.90;;;;;;5075610;28;20429;-71
2023/11/07 00:05:21;;;;;;;10.37;9.27;;;10.20;99.90;;;;;;5075331;28;20418;-71
2023/11/07 00:07:49;;;;;;;8.93;8.13;;;10.20;99.90;;;;;;5076176;28;20475;-71
2023/11/07 00:10:17;;;;;;;12.40;8.67;;;10.20;99.90;;;;;;5075479;28;20504;-71
2023/11/07 00:12:48;;;;;;;9.43;8.50;;;10.20;99.90;;;;;;5074396;28;20465;-71
2023/11/07 00:15:18;;;;;;;10.07;8.53;;;10.20;99.90;;;;;;5074895;28;20441;-71
2023/11/07 00:17:48;;;;;;;10.63;8.47;;;10.20;99.90;;;;;;5075658;28;20770;-71
2023/11/07 00:20:17;;;;;;;8.53;7.73;;;10.20;99.90;;;;;;5075422;28;20449;-71
2023/11/07 00:22:45;;;;;;;10.47;8.00;;;10.20;99.90;;;;;;5074570;28;20536;-71
2023/11/07 00:25:13;;;;;;;9.37;8.40;;;10.20;99.90;;;;;;5075477;28;20433;-71
2023/11/07 00:27:41;;;;;;;10.70;9.23;;;10.20;99.90;;;;;;5073986;28;20449;-71
2023/11/07 00:30:10;;;;;;;9.83;8.53;;;10.10;99.90;;;;;;5073478;28;20493;-71
2023/11/07 00:32:39;;;;;;;11.03;8.63;;;10.10;99.90;;;;;;5075549;28;20571;-71
2023/11/07 00:35:08;;;;;;;10.40;7.83;;;10.10;99.90;;;;;;5073968;28;20449;-71
2023/11/07 00:37:37;;;;;;;10.60;7.83;;;10.10;99.90;;;;;;5075157;28;20442;-71
2023/11/07 00:40:07;;;;;;;8.40;7.33;;;10.10;99.90;;;;;;5075357;28;20464;-71
2023/11/07 00:42:35;;;;;;;10.60;7.60;;;10.10;99.90;;;;;;5074774;28;20441;-71
2023/11/07 00:45:04;;;;;;;10.90;7.97;;;10.00;99.90;;;;;;5073398;28;20864;-71
2023/11/07 00:47:33;;;;;;;12.30;8.30;;;10.00;99.90;;;;;;5074429;28;20446;-71
2023/11/07 00:50:02;;;;;;;11.33;7.00;;;10.00;99.90;;;;;;5073295;28;20469;-71
2023/11/07 00:52:31;;;;;;;8.90;6.73;;;10.00;99.90;;;;;;5073076;28;20986;-71
2023/11/07 00:55:00;;;;;;;8.33;7.53;;;10.00;99.90;;;;;;5073224;28;20450;-71
2023/11/07 00:57:28;;;;;;;7.97;6.30;;;10.00;99.90;;;;;;5073319;28;20477;-71
2023/11/07 00:59:56;;;;;;;7.40;6.67;;;10.00;99.90;;;;;;5074526;28;20556;-71
2023/11/07 01:02:24;;;;;;;12.17;7.53;;;10.00;99.90;;;;;;5073058;28;20445;-71
2023/11/07 01:04:53;;;;;;;14.73;7.87;;;10.00;99.90;;;;;;5074329;28;20437;-71
2023/11/07 01:07:23;;;;;;;9.77;7.30;;;9.90;99.90;;;;;;5075288;28;20422;-71
2023/11/07 01:09:52;;;;;;;7.60;6.30;;;9.90;99.90;;;;;;5072872;28;20551;-71
2023/11/07 01:12:20;;;;;;;8.30;5.83;;;9.90;99.90;;;;;;5072795;28;20449;-71
2023/11/07 01:14:48;;;;;;;14.10;7.47;;;9.90;99.90;;;;;;5072904;28;20473;-71
2023/11/07 01:17:16;;;;;;;12.60;7.30;;;9.90;99.90;;;;;;5074280;28;20452;-71
2023/11/07 01:19:44;;;;;;;8.53;7.53;;;9.90;99.90;;;;;;5072778;28;20456;-71
2023/11/07 01:22:12;;;;;;;7.67;6.33;;;9.90;99.90;;;;;;5073845;28;20441;-71
2023/11/07 01:24:42;;;;;;;8.30;5.87;;;9.80;99.90;;;;;;5073813;28;20516;-71
2023/11/07 01:27:10;;;;;;;9.17;6.80;;;9.80;99.90;;;;;;5071651;28;20441;-71
2023/11/07 01:29:38;;;;;;;9.03;7.57;;;9.80;99.90;;;;;;5073707;28;20488;-71
2023/11/07 01:32:06;;;;;;;8.17;7.20;;;9.80;99.90;;;;;;5072811;28;20433;-71
2023/11/07 01:34:34;;;;;;;9.57;6.80;;;9.80;99.90;;;;;;5072667;28;20469;-71
2023/11/07 01:37:03;;;;;;;9.97;7.37;;;9.70;99.90;;;;;;5072588;28;20476;-72
2023/11/07 01:39:31;;;;;;;11.07;8.20;;;9.80;99.90;;;;;;5073544;28;20484;-71
2023/11/07 01:42:00;;;;;;;13.30;9.10;;;9.70;99.90;;;;;;5073765;28;20472;-71
2023/11/07 01:44:29;;;;;;;10.03;7.80;;;9.70;99.90;;;;;;5074229;28;20934;-71
2023/11/07 01:46:57;;;;;;;9.60;8.13;;;9.70;99.90;;;;;;5073747;28;20435;-71
2023/11/07 01:49:27;;;;;;;12.73;7.53;;;9.70;99.90;;;;;;5072595;28;20465;-72
2023/11/07 01:51:57;;;;;;;8.73;7.73;;;9.70;99.90;;;;;;5072707;28;20960;-71
2023/11/07 01:54:27;;;;;;;8.37;7.23;;;9.70;99.90;;;;;;5072510;28;20559;-72
2023/11/07 01:56:55;;;;;;;9.43;7.27;;;9.70;99.90;;;;;;5073729;28;20472;-72
2023/11/07 01:59:25;;;;;;;9.60;7.43;;;9.70;99.90;;;;;;5072256;28;20465;-71
2023/11/07 02:01:59;;;;;;;10.77;7.50;;;9.70;99.90;;;;;;5072593;28;20508;-71
2023/11/07 02:04:27;;;;;;;8.10;6.67;;;9.70;99.90;;;;;;5073553;28;20451;-71
2023/11/07 02:06:56;;;;;;;9.10;6.67;;;9.60;99.90;;;;;;5071999;28;20494;-71
2023/11/07 02:09:24;;;;;;;8.53;6.47;;;9.70;99.90;;;;;;5073122;28;20487;-71
2023/11/07 02:11:52;;;;;;;9.70;7.13;;;9.60;99.90;;;;;;5071895;28;20441;-71
2023/11/07 02:14:28;;;;;;;9.30;6.50;;;9.60;99.90;;;;;;5071912;28;20994;-71
2023/11/07 02:16:56;;;;;;;7.97;6.50;;;9.60;99.90;;;;;;5073712;28;20417;-71
2023/11/07 02:19:25;;;;;;;9.40;7.13;;;9.60;99.90;;;;;;5071843;28;20471;-71
2023/11/07 02:21:54;;;;;;;10.57;6.40;;;9.60;99.90;;;;;;5071909;28;20441;-71
2023/11/07 02:24:24;;;;;;;11.10;7.03;;;9.60;99.90;;;;;;5071860;28;20490;-72
2023/11/07 02:26:54;;;;;;;12.53;7.73;;;9.60;99.90;;;;;;5073034;28;20447;-71
2023/11/07 02:29:23;;;;;;;11.00;7.27;;;9.60;99.90;;;;;;5071519;28;20487;-72
2023/11/07 02:31:51;;;;;;;7.50;6.33;;;9.60;99.90;;;;;;5071804;28;20433;-72
2023/11/07 02:34:19;;;;;;;10.20;6.80;;;9.60;99.90;;;;;;5072956;28;20457;-71
2023/11/07 02:36:48;;;;;;;8.60;7.70;;;9.60;99.90;;;;;;5071714;28;20445;-71
2023/11/07 02:39:17;;;;;;;8.90;6.80;;;9.60;99.90;;;;;;5074890;28;20460;-71
2023/11/07 02:41:47;;;;;;;11.73;7.43;;;9.60;99.90;;;;;;5075521;28;20494;-71
2023/11/07 02:44:16;;;;;;;11.17;7.37;;;9.70;99.90;;;;;;5075580;28;20447;-71
2023/11/07 02:46:46;;;;;;;8.33;7.20;;;9.60;99.90;;;;;;5076644;28;20433;-71
2023/11/07 02:49:14;;;;;;;7.67;6.87;;;9.70;99.90;;;;;;5077090;28;20993;-71
2023/11/07 02:51:43;;;;;;;10.30;7.10;;;9.70;99.90;;;;;;5075283;28;20468;-71
2023/11/07 02:54:11;;;;;;;9.80;7.30;;;9.70;99.90;;;;;;5076470;28;20468;-71
2023/11/07 02:56:42;;;;;;;9.83;7.30;;;9.70;99.90;;;;;;5076505;28;20439;-71
2023/11/07 02:59:11;;;;;;;8.43;7.10;;;9.70;99.90;;;;;;5075157;28;20526;-71
2023/11/07 03:01:39;;;;;;;9.93;7.10;;;9.70;99.90;;;;;;5075143;28;20502;-71
2023/11/07 03:04:07;;;;;;;7.90;7.10;;;9.70;99.90;;;;;;5076434;28;20528;-71
2023/11/07 03:06:36;;;;;;;8.57;7.50;;;9.70;99.90;;;;;;5076845;28;20436;-71
2023/11/07 03:09:04;;;;;;;9.53;8.30;;;9.80;99.90;;;;;;5076257;28;20874;-71
2023/11/07 03:11:33;;;;;;;9.23;7.47;;;9.80;99.90;;;;;;5076068;28;20445;-71
2023/11/07 03:14:01;;;;;;;8.43;7.57;;;9.80;99.90;;;;;;5074711;28;20472;-71
2023/11/07 03:16:30;;;;;;;10.73;7.83;;;9.80;99.90;;;;;;5074793;28;20429;-71
2023/11/07 03:18:58;;;;;;;15.17;8.53;;;9.80;99.90;;;;;;5075923;28;20461;-71
2023/11/07 03:21:27;;;;;;;14.47;8.37;;;9.90;99.90;;;;;;5076501;28;20472;-71
2023/11/07 03:23:55;;;;;;;8.50;7.70;;;9.80;99.90;;;;;;5075883;28;20804;-71
2023/11/07 03:26:24;;;;;;;9.03;7.87;;;9.90;99.90;;;;;;5075915;28;20437;-72
2023/11/07 03:28:52;;;;;;;12.53;7.73;;;9.90;99.90;;;;;;5076093;28;20503;-71
2023/11/07 03:31:21;;;;;;;14.30;8.67;;;9.90;99.90;;;;;;5074473;28;20827;-71
2023/11/07 03:33:50;;;;;;;9.10;8.20;;;9.90;99.90;;;;;;5076079;28;20818;-71
2023/11/07 03:36:18;;;;;;;9.37;7.67;;;9.90;99.90;;;;;;5076038;28;20512;-71
2023/11/07 03:38:47;;;;;;;10.87;8.00;;;9.90;99.90;;;;;;5075641;28;20441;-72
2023/11/07 03:41:16;;;;;;;8.53;7.63;;;9.90;99.90;;;;;;5075750;28;20437;-71
2023/11/07 03:43:44;;;;;;;10.07;9.07;;;10.00;99.90;;;;;;5074351;28;20865;-71
2023/11/07 03:46:13;;;;;;;8.27;7.47;;;10.00;99.90;;;;;;5074513;28;20503;-71
2023/11/07 03:48:41;;;;;;;13.57;7.80;;;10.00;99.90;;;;;;5075211;28;20776;-71
2023/11/07 03:51:11;;;;;;;8.70;7.37;;;10.00;99.90;;;;;;5075182;28;20436;-71
2023/11/07 03:53:39;;;;;;;8.80;7.30;;;10.00;99.90;;;;;;5075411;28;20473;-71
2023/11/07 03:56:09;;;;;;;8.83;7.23;;;10.00;99.90;;;;;;5075441;28;20449;-70
2023/11/07 03:58:37;;;;;;;8.93;8.00;;;10.00;99.90;;;;;;5075327;28;20949;-71
2023/11/07 04:01:06;;;;;;;9.27;7.30;;;10.00;99.90;;;;;;5075922;28;21060;-71
2023/11/07 04:03:34;;;;;;;11.90;8.47;;;10.00;99.90;;;;;;5075226;28;20446;-71
2023/11/07 04:06:02;;;;;;;10.10;7.17;;;10.00;99.90;;;;;;5073943;28;20483;-72
2023/11/07 04:08:32;;;;;;;10.67;8.57;;;10.00;99.90;;;;;;5073722;28;21038;-71
2023/11/07 04:11:00;;;;;;;13.00;7.07;;;10.00;99.90;;;;;;5075109;28;20833;-71
2023/11/07 04:13:29;;;;;;;9.13;7.47;;;10.00;99.90;;;;;;5075068;28;20931;-72
2023/11/07 04:15:58;;;;;;;8.67;7.53;;;10.00;99.90;;;;;;5074982;28;20493;-71
2023/11/07 04:18:26;;;;;;;10.93;7.63;;;10.00;99.90;;;;;;5075061;28;20456;-71
2023/11/07 04:20:55;;;;;;;7.70;6.90;;;10.00;99.90;;;;;;5074816;28;20467;-71
2023/11/07 04:23:23;;;;;;;7.93;6.40;;;10.00;99.90;;;;;;5075402;28;20787;-71
2023/11/07 04:25:52;;;;;;;10.10;6.90;;;10.00;99.90;;;;;;5074776;28;20463;-71
2023/11/07 04:28:20;;;;;;;8.33;7.37;;;10.00;99.90;;;;;;5074743;28;20529;-71
2023/11/07 04:30:49;;;;;;;8.87;7.77;;;10.00;99.90;;;;;;5074952;28;20508;-71
2023/11/07 04:33:17;;;;;;;9.00;7.30;;;10.10;99.90;;;;;;5074237;28;20437;-71
2023/11/07 04:35:45;;;;;;;8.43;7.20;;;10.10;99.90;;;;;;5074810;28;20472;-71
2023/11/07 04:38:13;;;;;;;7.63;6.97;;;10.10;99.90;;;;;;5074623;28;20511;-71
2023/11/07 04:40:42;;;;;;;7.77;6.97;;;10.10;99.90;;;;;;5074518;28;20549;-71
2023/11/07 04:43:11;;;;;;;10.73;7.47;;;10.10;99.90;;;;;;5073148;28;20498;-71
2023/11/07 04:45:40;;;;;;;9.97;8.10;;;10.10;99.90;;;;;;5074404;28;20429;-71
2023/11/07 04:48:10;;;;;;;10.23;7.70;;;10.10;99.90;;;;;;5074358;28;20469;-71
2023/11/07 04:50:39;;;;;;;8.23;7.20;;;10.10;99.90;;;;;;5074292;28;20506;-71
2023/11/07 04:53:07;;;;;;;11.23;7.40;;;10.10;99.90;;;;;;5074537;28;20433;-71
2023/11/07 04:55:35;;;;;;;10.33;7.90;;;10.10;99.90;;;;;;5074342;28;20877;-71
2023/11/07 04:58:03;;;;;;;9.20;7.50;;;10.10;99.90;;;;;;5074202;28;20442;-71
2023/11/07 05:00:33;;;;;;;9.20;8.20;;;10.10;99.90;;;;;;5076651;28;20548;-71
2023/11/07 05:03:01;;;;;;;14.03;7.60;;;10.10;99.90;;;;;;5076838;28;20524;-72
2023/11/07 05:05:30;;;;;;;11.80;8.33;;;10.10;99.90;;;;;;5074283;28;20524;-71
2023/11/07 05:07:58;;;;;;;11.47;7.50;;;10.10;99.90;;;;;;5073968;28;21030;-72
2023/11/07 05:10:26;;;;;;;9.60;8.07;;;10.10;99.90;;;;;;5073867;28;20464;-72
2023/11/07 05:12:54;;;;;;;9.00;8.10;;;10.10;99.90;;;;;;5073926;28;20944;-71
2023/11/07 05:15:23;;;;;;;13.00;8.20;;;10.10;99.90;;;;;;5072643;28;20564;-71
2023/11/07 05:17:54;;;;;;;8.93;7.10;;;10.10;99.90;;;;;;5073888;28;20495;-71
2023/11/07 05:20:22;;;;;;;11.40;8.30;;;10.00;99.90;;;;;;5073833;28;20831;-71
2023/11/07 05:22:50;;;;;;;9.47;7.63;;;10.00;99.90;;;;;;5074016;28;20524;-71
2023/11/07 05:25:18;;;;;;;10.50;7.90;;;10.00;99.90;;;;;;5072425;28;20441;-71
2023/11/07 05:27:46;;;;;;;13.30;8.57;;;10.10;99.90;;;;;;5073691;28;20433;-71
2023/11/07 05:30:15;;;;;;;10.67;7.63;;;10.10;99.90;;;;;;5073560;28;20559;-71
2023/11/07 05:32:46;;;;;;;11.93;8.20;;;10.10;99.90;;;;;;5073585;28;20796;-72
2023/11/07 05:35:16;;;;;;;8.90;7.80;;;10.10;99.90;;;;;;5073589;28;20461;-71
2023/11/07 05:37:46;;;;;;;9.47;8.47;;;10.00;99.90;;;;;;5073603;28;20947;-71
2023/11/07 05:40:15;;;;;;;12.10;8.47;;;10.10;99.90;;;;;;5073398;28;20823;-71
2023/11/07 05:42:44;;;;;;;8.60;7.80;;;10.00;99.90;;;;;;5073673;28;20528;-71
2023/11/07 05:45:12;;;;;;;6.67;5.97;;;10.00;99.90;;;;;;5073458;28;20465;-71
2023/11/07 05:47:41;;;;;;;11.93;8.00;;;10.00;99.90;;;;;;5072226;28;20865;-72
2023/11/07 05:50:11;;;;;;;10.60;8.47;;;10.00;99.90;;;;;;5073478;28;20460;-72
2023/11/07 05:52:41;;;;;;;8.80;7.77;;;10.00;99.90;;;;;;5073618;28;20451;-71
2023/11/07 05:55:10;;;;;;;11.00;8.40;;;10.00;99.90;;;;;;5076871;28;20522;-72
2023/11/07 05:57:38;;;;;;;11.50;7.97;;;10.00;99.90;;;;;;5078510;28;20445;-72
2023/11/07 06:00:10;;;;;;;11.03;8.10;;;10.00;99.90;;;;;;5074182;28;20555;-72
2023/11/07 06:02:38;;;;;;;10.63;8.93;;;10.00;99.90;;;;;;5076209;28;20512;-72
2023/11/07 06:05:07;;;;;;;9.67;8.77;;;9.90;99.90;;;;;;5075320;28;20440;-72
2023/11/07 06:07:36;;;;;;;9.83;8.83;;;9.90;99.90;;;;;;5074231;28;20498;-72
2023/11/07 06:10:07;;;;;;;11.27;10.07;;;9.90;99.90;;;;;;5074534;28;20449;-71
2023/11/07 06:12:35;;;;;;;11.40;9.30;;;9.90;99.90;;;;;;5074366;28;20436;-72
2023/11/07 06:15:04;;;;;;;11.27;10.03;;;9.90;99.90;;;;;;5079311;28;20444;-72
2023/11/07 06:17:32;;;;;;;11.00;9.30;;;9.90;99.90;;;;;;5077977;28;20795;-72
2023/11/07 06:20:00;;;;;;;11.57;8.97;;;9.90;99.90;;;;;;5077619;28;20467;-72
2023/11/07 06:22:29;;;;;;;10.97;9.60;;;9.90;99.90;;;;;;5077459;28;20443;-72
2023/11/07 06:24:57;;;;;;;12.60;9.60;;;9.90;99.90;;;;;;5077556;28;20498;-72
2023/11/07 06:27:27;;;;;;;12.17;8.97;;;9.90;99.90;;;;;;5077455;28;20486;-71
2023/11/07 06:29:55;;;;;;;11.07;9.93;;;9.90;99.90;;;;;;5077162;28;20897;-72
2023/11/07 06:32:23;;;;;;;11.80;9.90;;;9.90;99.90;;;;;;5077453;28;20471;-71
2023/11/07 06:34:51;;;;;;;12.87;9.17;;;9.90;99.90;;;;;;5077497;28;20441;-71
2023/11/07 06:37:20;;;;;;;13.30;9.33;;;9.90;99.90;;;;;;5076967;28;20465;-71
2023/11/07 06:39:49;;;;;;;14.10;10.17;;;10.00;99.90;;;;;;5076932;28;20457;-71
2023/11/07 06:42:17;;;;;;;11.10;9.97;;;9.90;99.90;;;;;;5077495;28;20437;-71
2023/11/07 06:44:47;;;;;;;11.07;9.87;;;10.00;99.90;;;;;;5075639;28;20495;-71
2023/11/07 06:47:15;;;;;;;11.10;10.17;;;10.00;99.90;;;;;;5076759;28;20440;-71
2023/11/07 06:49:44;;;;;;;11.20;10.03;;;10.00;99.90;;;;;;5077342;28;20465;-71
2023/11/07 06:52:12;;;;;;;15.93;11.20;;;10.00;99.90;;;;;;5076651;28;20520;-72
2023/11/07 06:54:40;;;;;;;13.23;10.40;;;10.00;99.90;;;;;;5076772;28;20532;-71
2023/11/07 06:57:09;;;;;;;12.50;9.70;;;10.00;99.90;;;;;;5075272;28;20469;-71
2023/11/07 06:59:37;;;;;;;9.90;8.90;;;10.10;99.90;;;;;;5076380;28;20453;-71
2023/11/07 07:02:07;;;;;;;13.53;9.70;;;10.10;99.90;;;;;;5076623;28;20445;-71
2023/11/07 07:04:35;;;;;;;10.87;9.73;;;10.10;99.90;;;;;;5076363;28;21003;-72
2023/11/07 07:07:03;;;;;;;11.37;10.07;;;10.10;99.90;;;;;;5076500;28;20486;-72
2023/11/07 07:09:31;;;;;;;11.80;10.60;;;10.10;99.90;;;;;;5076245;28;20457;-72
2023/11/07 07:11:59;;;;;;;16.67;10.13;;;10.10;99.90;;;;;;5076737;28;21001;-71
2023/11/07 07:14:27;;;;;;;11.40;10.27;;;10.10;99.90;;;;;;5076904;28;20985;-71
2023/11/07 07:16:56;;;;;;;11.33;9.83;;;10.20;99.90;;;;;;5076182;28;20465;-71
2023/11/07 07:19:25;;;;;;;13.33;10.73;;;10.20;99.90;;;;;;5076338;28;20888;-71
2023/11/07 07:21:54;;;;;;;10.90;9.80;;;10.20;99.90;;;;;;5076249;28;20460;-71
2023/11/07 07:24:27;;;;;;;11.60;10.03;;;10.20;99.90;;;;;;5076186;28;20451;-71
2023/11/07 07:26:56;;;;;;;10.57;9.57;;;10.20;99.90;;;;;;5076145;28;20477;-71
2023/11/07 07:29:26;;;;;;;10.93;9.50;;;10.20;99.90;;;;;;5074775;28;20465;-72
2023/11/07 07:31:56;;;;;;;12.03;10.40;;;10.20;99.90;;;;;;5075613;28;20440;-72
2023/11/07 07:34:26;;;;;;;12.93;10.97;;;10.30;99.90;;;;;;5076186;28;20785;-71
2023/11/07 07:36:54;;;;;;;11.10;10.00;;;10.30;99.90;;;;;;5075760;28;20510;-71
2023/11/07 07:39:32;;;;;;;11.67;10.57;;;10.30;99.90;;;;;;5075782;28;20816;-72
2023/11/07 07:42:09;;;;;;;12.20;10.47;;;10.30;99.90;;;;;;5076019;28;20500;-72
2023/11/07 07:44:38;;;;;;;12.07;10.70;;;10.30;99.90;;;;;;5075551;28;20539;-72
2023/11/07 07:47:07;;;;;;;14.30;10.33;;;10.30;99.90;;;;;;5075944;28;20437;-72
2023/11/07 07:49:40;;;;;;;13.00;10.33;;;10.30;99.90;;;;;;5076145;28;20461;-72
2023/11/07 07:52:09;;;;;;;11.43;10.43;;;10.40;99.90;;;;;;5075809;28;20449;-72
2023/11/07 07:54:38;;;;;;;11.63;10.50;;;10.40;99.90;;;;;;5074207;28;20442;-72
2023/11/07 07:57:09;;;;;;;11.60;10.40;;;10.40;99.90;;;;;;5075738;28;20465;-71
2023/11/07 07:59:40;;;;;;;12.50;11.20;;;10.40;99.90;;;;;;5075497;28;20457;-71
2023/11/07 08:02:10;;;;;;;12.20;11.00;;;10.40;99.90;;;;;;5076104;28;20421;-71
2023/11/07 08:04:39;;;;;;;11.70;10.70;;;10.40;99.90;;;;;;5075090;28;20448;-72
2023/11/07 08:07:08;;;;;;;13.27;10.43;;;10.50;99.90;;;;;;5076685;28;20468;-72
2023/11/07 08:09:40;;;;;;;14.03;10.63;;;10.40;99.90;;;;;;5075492;28;20460;-72
2023/11/07 08:12:10;;;;;;;12.63;11.40;;;10.50;99.90;;;;;;5075642;28;20418;-71
2023/11/07 08:14:38;;;;;;;12.67;11.30;;;10.50;99.90;;;;;;5075454;28;20456;-72
2023/11/07 08:17:06;;;;;;;15.33;11.43;;;10.50;99.90;;;;;;5075007;28;20473;-72
2023/11/07 08:19:35;;;;;;;12.43;11.23;;;10.50;99.90;;;;;;5075223;28;20464;-72
2023/11/07 08:22:06;;;;;;;14.20;12.90;;;10.50;99.90;;;;;;5074939;28;20960;-72
2023/11/07 08:24:35;;;;;;;12.50;11.30;;;10.60;99.90;;;;;;5075170;28;20433;-72
2023/11/07 08:27:04;;;;;;;12.70;11.43;;;10.60;99.90;;;;;;5075094;28;20797;-72
2023/11/07 08:29:33;;;;;;;12.37;11.27;;;10.60;99.90;;;;;;5074622;28;20465;-72
2023/11/07 08:32:01;;;;;;;14.63;12.00;;;10.60;99.90;;;;;;5074857;28;20479;-72
2023/11/07 08:34:32;;;;;;;13.10;11.90;;;10.60;99.90;;;;;;5074803;28;20432;-71
2023/11/07 08:37:01;;;;;;;12.27;11.13;;;10.60;99.90;;;;;;5074368;28;20477;-72
2023/11/07 08:39:40;;;;;;;12.37;11.27;;;10.70;99.90;;;;;;5074693;28;20861;-72
2023/11/07 08:42:10;;;;;;;12.40;11.23;;;10.70;99.90;;;;;;5074807;28;20424;-72
2023/11/07 08:44:39;;;;;;;13.23;11.83;;;10.70;99.90;;;;;;5074546;28;20770;-71
2023/11/07 08:47:07;;;;;;;11.40;10.20;;;10.70;99.90;;;;;;5073245;28;20450;-71
2023/11/07 08:49:37;;;;;;;12.13;10.93;;;10.80;99.90;;;;;;5074375;28;20479;-72
2023/11/07 08:52:06;;;;;;;12.27;11.07;;;10.80;99.90;;;;;;5075107;28;20464;-71
2023/11/07 08:54:36;;;;;;;12.40;11.40;;;10.80;99.90;;;;;;5075497;28;20751;-72
2023/11/07 08:57:06;;;;;;;11.37;10.33;;;10.80;99.90;;;;;;5074254;28;20457;-71
2023/11/07 08:59:36;;;;;;;10.10;9.20;;;10.90;99.90;;;;;;5072986;28;20477;-71
2023/11/07 09:02:04;;;;;;;12.63;11.50;;;10.90;99.90;;;;;;5074553;28;20512;-71
2023/11/07 09:04:33;;;;;;;12.20;11.07;;;10.90;99.90;;;;;;5074176;28;20468;-72
2023/11/07 09:07:02;;;;;;;11.57;10.57;;;10.90;99.90;;;;;;5074051;28;20440;-71
2023/11/07 09:09:31;;;;;;;11.10;10.20;;;10.90;99.90;;;;;;5073988;28;21006;-72
2023/11/07 09:11:59;;;;;;;10.13;9.10;;;10.90;99.90;;;;;;5074341;28;20770;-71
2023/11/07 09:14:29;;;;;;;9.83;9.00;;;11.00;99.90;;;;;;5074262;28;20440;-71
2023/11/07 09:16:57;;;;;;;10.90;9.80;;;10.90;99.90;;;;;;5073958;28;20973;-72
2023/11/07 09:19:25;;;;;;;9.97;9.07;;;10.90;99.90;;;;;;5073803;28;20503;-72
2023/11/07 09:21:53;;;;;;;9.70;9.00;;;10.90;99.90;;;;;;5074128;28;20468;-71
2023/11/07 09:24:21;;;;;;;9.97;9.17;;;11.00;99.90;;;;;;5074081;28;20467;-71
2023/11/07 09:26:50;;;;;;;8.90;8.10;;;11.00;99.90;;;;;;5072522;28;20475;-71
2023/11/07 09:29:18;;;;;;;9.47;8.77;;;11.00;99.90;;;;;;5073622;28;20468;-72
2023/11/07 09:31:48;;;;;;;9.23;8.53;;;11.00;99.90;;;;;;5073810;28;20520;-72
2023/11/07 09:34:16;;;;;;;8.50;7.80;;;11.00;99.90;;;;;;5073828;28;20464;-72
2023/11/07 09:36:45;;;;;;;8.00;7.30;;;11.00;99.90;;;;;;5073551;28;20441;-72
2023/11/07 09:39:13;;;;;;;9.10;8.50;;;11.00;99.90;;;;;;5073598;28;21004;-72
2023/11/07 09:41:42;;;;;;;8.37;7.70;;;11.00;99.90;;;;;;5073583;28;20520;-71
2023/11/07 09:44:11;;;;;;;8.20;7.43;;;11.00;99.90;;;;;;5073513;28;20448;-72
2023/11/07 09:46:40;;;;;;;9.10;8.30;;;11.00;99.90;;;;;;5071968;28;20485;-71
2023/11/07 09:49:12;;;;;;;8.93;8.10;;;11.00;99.90;;;;;;5073451;28;20457;-72
2023/11/07 09:51:40;;;;;;;8.27;7.47;;;11.10;99.90;;;;;;5073732;28;20847;-72
2023/11/07 09:54:08;;;;;;;7.33;6.60;;;11.10;99.90;;;;;;5073457;28;20625;-71
2023/11/07 09:56:40;;;;;;;7.57;6.90;;;11.10;99.90;;;;;;5073509;28;20492;-72
2023/11/07 09:59:16;;;;;;;7.67;6.67;;;11.20;99.90;;;;;;5073923;28;20510;-71
2023/11/07 10:01:47;;;;;;;7.50;6.80;;;11.20;99.90;;;;;;5073373;28;20800;-72
2023/11/07 10:04:19;;;;;;;7.03;5.60;;;11.20;99.90;;;;;;5072944;28;20421;-71
2023/11/07 10:06:48;;;;;;;6.27;5.67;;;11.20;99.90;;;;;;5072076;28;20803;-72
2023/11/07 10:09:16;;;;;;;8.13;5.97;;;11.20;99.90;;;;;;5073175;28;20457;-71
2023/11/07 10:11:49;;;;;;;5.90;5.40;;;11.30;99.90;;;;;;5071913;28;20884;-71
2023/11/07 10:14:20;;;;;;;7.27;6.00;;;11.30;99.90;;;;;;5073287;28;20799;-72
2023/11/07 10:16:51;;;;;;;6.37;5.80;;;11.40;99.90;;;;;;5073496;28;20421;-71
2023/11/07 10:19:25;;;;;;;6.10;5.60;;;11.50;99.90;;;;;;5073278;28;20473;-71
2023/11/07 10:21:54;;;;;;;7.07;5.90;;;11.50;99.90;;;;;;5073330;28;20421;-71
2023/11/07 10:24:22;;;;;;;6.07;5.50;;;11.60;99.90;;;;;;5073379;28;20442;-71
2023/11/07 10:26:52;;;;;;;5.30;4.80;;;11.60;99.90;;;;;;5073369;28;20429;-71
2023/11/07 10:29:31;;;;;;;4.50;4.10;;;11.70;99.90;;;;;;5073164;28;20454;-72
2023/11/07 10:32:10;;;;;;;6.10;4.90;;;11.70;99.90;;;;;;5073849;28;20441;-71
2023/11/07 10:34:40;;;;;;;8.17;4.93;;;11.70;99.90;;;;;;5073368;28;20475;-71
2023/11/07 10:37:09;;;;;;;7.00;4.43;;;11.70;99.90;;;;;;5072991;28;20428;-71
2023/11/07 10:39:37;;;;;;;4.73;3.70;;;11.80;99.90;;;;;;5072771;28;20477;-71
2023/11/07 10:42:18;;;;;;;6.90;4.30;;;11.80;99.90;;;;;;5073265;28;20437;-71
2023/11/07 10:44:49;;;;;;;4.73;4.33;;;11.80;99.90;;;;;;5073292;28;20421;-71
2023/11/07 10:47:19;;;;;;;4.37;3.37;;;11.80;99.90;;;;;;5072989;28;20433;-71
2023/11/07 10:49:52;;;;;;;4.83;4.37;;;11.80;99.90;;;;;;5071676;28;20987;-71
2023/11/07 10:52:20;;;;;;;4.53;3.70;;;11.80;99.90;;;;;;5071627;28;20430;-71
2023/11/07 10:54:48;;;;;;;6.33;3.80;;;11.80;99.90;;;;;;5072901;28;20446;-71
2023/11/07 10:57:26;;;;;;;5.20;3.83;;;11.90;99.90;;;;;;5073151;28;20524;-71
2023/11/07 11:00:05;;;;;;;5.17;4.03;;;11.90;99.90;;;;;;5075808;28;20858;-71
2023/11/07 11:02:34;;;;;;;4.70;3.70;;;11.90;99.90;;;;;;5076766;28;20853;-72
2023/11/07 11:05:06;;;;;;;5.20;3.63;;;12.00;99.90;;;;;;5076825;28;20429;-71
2023/11/07 11:07:34;;;;;;;4.90;3.47;;;12.00;99.90;;;;;;5076945;28;20512;-71
2023/11/07 11:10:06;;;;;;;4.60;3.73;;;12.10;99.90;;;;;;5075053;28;20564;-71
2023/11/07 11:12:36;;;;;;;4.57;4.17;;;12.10;99.90;;;;;;5076467;28;20461;-71
2023/11/07 11:15:09;;;;;;;5.43;3.10;;;12.10;99.90;;;;;;5076870;28;20899;-71
2023/11/07 11:17:44;;;;;;;7.10;3.00;;;12.10;99.90;;;;;;5075037;28;20469;-71
2023/11/07 11:20:22;;;;;;;3.50;3.00;;;12.10;99.90;;;;;;5076497;28;20580;-71
2023/11/07 11:22:56;;;;;;;5.30;3.80;;;12.20;99.90;;;;;;5076462;28;20417;-71
2023/11/07 11:25:32;;;;;;;6.10;4.10;;;12.20;99.90;;;;;;5076330;28;20417;-71
2023/11/07 11:28:03;;;;;;;4.20;3.30;;;12.20;99.90;;;;;;5076277;28;20421;-71
2023/11/07 11:30:32;;;;;;;3.80;3.47;;;12.20;99.90;;;;;;5074667;28;20512;-71
2023/11/07 11:33:08;;;;;;;6.47;3.20;;;12.20;99.90;;;;;;5075979;28;20441;-71
2023/11/07 11:35:40;;;;;;;5.70;3.40;;;12.20;99.90;;;;;;5074856;28;20843;-71
2023/11/07 11:38:10;;;;;;;3.30;2.80;;;12.20;99.90;;;;;;5074561;28;20457;-71
2023/11/07 11:40:50;;;;;;;2.97;2.67;;;12.20;99.90;;;;;;5075742;28;20464;-71
2023/11/07 11:43:20;;;;;;;4.33;2.40;;;12.30;99.90;;;;;;5076090;28;20426;-71
2023/11/07 11:45:49;;;;;;;3.23;2.33;;;12.30;99.90;;;;;;5076025;28;20417;-71
2023/11/07 11:48:19;;;;;;;3.40;2.30;;;12.30;99.90;;;;;;5075727;28;20433;-71
2023/11/07 11:51:11;;;;;;;4.30;2.27;;;12.30;99.90;;;;;;5074251;28;20552;-71
2023/11/07 11:53:47;;;;;;;3.83;1.83;;;12.30;99.90;;;;;;5075726;28;20447;-71
2023/11/07 11:56:15;;;;;;;2.73;1.60;;;12.30;99.90;;;;;;5075697;28;20445;-72
2023/11/07 11:59:04;;;;;;;2.50;2.00;;;12.30;99.90;;;;;;5075612;28;20468;-71
2023/11/07 12:01:49;;;;;;;3.73;2.80;;;12.30;99.90;;;;;;5074229;28;20438;-71
2023/11/07 12:04:28;;;;;;;3.70;1.90;;;12.30;99.90;;;;;;5074091;28;20452;-71
2023/11/07 12:07:23;;;;;;;3.17;2.40;;;12.30;99.90;;;;;;5075376;28;20445;-71
2023/11/07 12:09:56;;;;;;;3.10;2.17;;;12.30;99.90;;;;;;5073730;28;20896;-71
2023/11/07 12:12:25;;;;;;;3.17;2.50;;;12.40;99.90;;;;;;5073657;28;20426;-71
2023/11/07 12:14:54;;;;;;;3.30;2.23;;;12.40;99.90;;;;;;5075325;28;20441;-72
2023/11/07 12:17:23;;;;;;;2.90;2.10;;;12.40;99.90;;;;;;5075142;28;20460;-72
2023/11/07 12:20:03;;;;;;;4.63;2.30;;;12.40;99.90;;;;;;5075044;28;20484;-72
2023/11/07 12:22:33;;;;;;;2.40;2.03;;;12.40;99.90;;;;;;5074995;28;20449;-72
2023/11/07 12:25:06;;;;;;;3.50;2.23;;;12.40;99.90;;;;;;5073603;28;20499;-72
2023/11/07 12:27:35;;;;;;;2.10;1.80;;;12.40;99.90;;;;;;5075443;28;20421;-72
2023/11/07 12:30:15;;;;;;;2.70;1.83;;;12.40;99.90;;;;;;5074887;28;20481;-72
2023/11/07 12:32:43;;;;;;;3.40;1.90;;;12.40;99.90;;;;;;5074098;28;20537;-71
2023/11/07 12:35:23;;;;;;;2.97;2.20;;;12.40;99.90;;;;;;5074718;28;20448;-72
2023/11/07 12:37:55;;;;;;;2.50;2.27;;;12.40;99.90;;;;;;5075097;28;20442;-72
2023/11/07 12:40:23;;;;;;;2.60;2.40;;;12.40;99.90;;;;;;5073267;28;20487;-72
2023/11/07 12:42:55;;;;;;;3.10;2.40;;;12.40;99.90;;;;;;5074651;28;20440;-72
2023/11/07 12:45:26;;;;;;;3.70;2.20;;;12.40;99.90;;;;;;5073511;28;20492;-72
2023/11/07 12:47:56;;;;;;;3.03;2.20;;;12.50;99.90;;;;;;5074653;28;20464;-72
2023/11/07 12:50:26;;;;;;;2.77;2.37;;;12.50;99.90;;;;;;5073378;28;20496;-72
2023/11/07 12:52:56;;;;;;;3.30;2.20;;;12.50;99.90;;;;;;5074561;28;20527;-72
2023/11/07 12:55:26;;;;;;;3.30;2.10;;;12.50;99.90;;;;;;5074396;28;20532;-72